Airport View

Enter AWOS ICAO identifier for current METAR.

ex. KFNL

KPEX 112135Z AUTO 00000KT 10SM SCT110 M17/M21 A3039 RMK AO2 T11701210

11 Dec 2019 21:57

Frequency: 120.35

Phone: 320-243-4538

Other Area AWOS: KLJF - KD39 - KBDH - KGHW

TAF KSTC 111729Z 1118/1218 24004KT P6SM FEW110 FM112300 12004KT P6SM SCT050 BKN090 FM120400 11006KT 3SM -SN BR OVC040 FM120900 09008KT 1 1/2SM -SN BR BKN008 OVC015 FM121500 06006KT 5SM -SN BR OVC008